Time;durP1;ratioP1;P1;durP2;ratioP2;P2;SDS_P1;SDS_P2;PMS_P1;PMS_P2;Temp;Humidity;BMP_temperature;BMP_pressure;BME280_temperature;BME280_humidity;BME280_pressure;Samples;Min_cycle;Max_cycle;Signal;HPM_P1;HPM_P2
2022/06/14 00:01:55;;;;;;;15.47;14.00;;;;;;;21.56;86.80;99259.28;5070150;28;20196;-56
2022/06/14 00:04:22;;;;;;;16.73;15.03;;;;;;;21.55;86.51;99256.75;5069996;28;20199;-56
2022/06/14 00:06:50;;;;;;;16.70;14.70;;;;;;;21.41;87.49;99251.94;5069921;28;20207;-56
2022/06/14 00:09:17;;;;;;;17.60;15.80;;;;;;;21.43;87.46;99249.28;5069743;28;20228;-56
2022/06/14 00:11:46;;;;;;;16.70;15.00;;;;;;;21.43;87.67;99246.66;5058536;28;20458;-56
2022/06/14 00:14:13;;;;;;;20.70;14.67;;;;;;;21.51;87.06;99252.50;5070124;28;20277;-56
2022/06/14 00:16:40;;;;;;;17.27;15.67;;;;;;;21.51;87.17;99247.25;5059982;28;20204;-56
2022/06/14 00:19:07;;;;;;;16.20;14.63;;;;;;;21.48;87.15;99255.25;5070018;28;20187;-56
2022/06/14 00:21:36;;;;;;;17.10;15.40;;;;;;;21.44;87.37;99251.84;5069702;28;20196;-56
2022/06/14 00:24:05;;;;;;;17.10;15.30;;;;;;;21.40;87.43;99249.41;5066663;28;20192;-56
2022/06/14 00:26:32;;;;;;;16.70;15.10;;;;;;;21.33;87.84;99247.84;5069988;28;20218;-56
2022/06/14 00:28:59;;;;;;;17.07;15.33;;;;;;;21.30;88.22;99255.78;5069643;28;20219;-56
2022/06/14 00:31:27;;;;;;;17.57;15.83;;;;;;;21.25;88.27;99249.84;5069572;28;20725;-56
2022/06/14 00:33:54;;;;;;;16.50;14.73;;;;;;;21.16;87.32;99254.47;5055807;28;20650;-56
2022/06/14 00:36:25;;;;;;;16.13;14.30;;;;;;;21.17;87.31;99261.41;5069930;28;20265;-56
2022/06/14 00:38:52;;;;;;;17.07;14.87;;;;;;;21.20;86.82;99259.59;5072663;28;20709;-56
2022/06/14 00:41:32;;;;;;;16.40;14.70;;;;;;;21.15;86.75;99257.97;5072411;28;20187;-57
2022/06/14 00:43:59;;;;;;;16.77;15.07;;;;;;;21.18;86.96;99259.63;5073595;28;20199;-56
2022/06/14 00:46:30;;;;;;;17.23;15.33;;;;;;;21.16;87.47;99258.81;5073553;28;20180;-57
2022/06/14 00:49:03;;;;;;;17.20;15.43;;;;;;;21.08;88.01;99258.19;5073383;28;20252;-56
2022/06/14 00:51:33;;;;;;;16.80;15.00;;;;;;;20.96;88.31;99266.34;5073002;28;20202;-56
2022/06/14 00:54:04;;;;;;;18.10;16.30;;;;;;;20.99;88.35;99264.53;5070714;28;20187;-56
2022/06/14 00:56:39;;;;;;;18.03;15.20;;;;;;;20.98;88.32;99272.41;5073032;28;20210;-56
2022/06/14 00:59:14;;;;;;;16.10;14.50;;;;;;;20.96;87.70;99271.59;5071021;28;20180;-57
2022/06/14 01:01:43;;;;;;;18.50;15.90;;;;;;;20.91;87.85;99270.88;5070348;28;20559;-65
2022/06/14 01:04:15;;;;;;;16.47;14.77;;;;;;;20.75;88.36;99275.69;5071667;28;20658;-66
2022/06/14 01:06:50;;;;;;;18.70;15.03;;;;;;;20.81;87.81;99272.91;5071844;28;20195;-65
2022/06/14 01:09:21;;;;;;;19.83;15.30;;;;;;;20.83;87.46;99284.16;5072632;28;20222;-65
2022/06/14 01:11:52;;;;;;;17.08;15.45;;;;;;;20.83;87.95;99272.84;5071574;28;20437;-65
2022/06/14 01:14:23;;;;;;;17.40;14.47;;;;;;;20.89;87.45;99267.44;5072892;28;20595;-66
2022/06/14 01:16:51;;;;;;;20.30;15.47;;;;;;;20.95;87.04;99265.53;5071647;28;20210;-65
2022/06/14 01:19:21;;;;;;;18.07;13.97;;;;;;;20.91;86.65;99257.81;5071433;28;20191;-65
2022/06/14 01:21:54;;;;;;;14.93;13.47;;;;;;;20.89;86.14;99255.25;5073060;28;20199;-66
2022/06/14 01:24:23;;;;;;;15.60;14.07;;;;;;;20.90;85.81;99256.97;5073391;28;20268;-65
2022/06/14 01:26:50;;;;;;;16.13;14.30;;;;;;;20.90;85.96;99261.34;5072978;28;20287;-65
2022/06/14 01:29:20;;;;;;;15.20;13.70;;;;;;;20.86;86.07;99250.13;5073096;28;20242;-65
2022/06/14 01:31:49;;;;;;;16.03;14.53;;;;;;;20.89;86.15;99252.63;5073183;28;20195;-65
2022/06/14 01:34:17;;;;;;;15.67;14.17;;;;;;;20.88;86.31;99256.13;5073348;28;20191;-65
2022/06/14 01:36:43;;;;;;;15.63;14.03;;;;;;;20.86;86.40;99260.56;5073151;28;20196;-65
2022/06/14 01:39:15;;;;;;;16.17;14.47;;;;;;;20.82;86.82;99263.31;5056796;28;20202;-65
2022/06/14 01:41:55;;;;;;;16.73;14.57;;;;;;;20.77;87.08;99266.03;5052451;28;20192;-65
2022/06/14 01:44:33;;;;;;;15.53;14.13;;;;;;;20.73;87.10;99266.19;5053016;28;20266;-66
2022/06/14 01:47:17;;;;;;;16.00;14.40;;;;;;;20.70;87.37;99277.56;5068939;28;20249;-65
2022/06/14 01:52:47;;;;;;;14.97;13.33;;;;;;;20.61;85.36;99290.88;5072512;28;20199;-66
2022/06/14 01:55:22;;;;;;;15.93;13.77;;;;;;;20.52;84.85;99281.53;5072647;28;20574;-64
2022/06/14 01:57:58;;;;;;;16.00;14.40;;;;;;;20.43;84.71;99281.81;5060436;28;20207;-65
2022/06/14 02:00:29;;;;;;;15.13;13.57;;;;;;;20.37;84.84;99273.28;5052590;28;20192;-65
2022/06/14 02:05:52;;;;;;;17.13;13.30;;;;;;;20.39;85.06;99280.16;5052382;28;20314;-66
2022/06/14 02:08:24;;;;;;;14.43;12.97;;;;;;;20.40;85.37;99291.47;5052024;28;20192;-66
2022/06/14 02:11:00;;;;;;;13.63;12.43;;;;;;;20.37;84.94;99289.78;5052574;28;20231;-65
2022/06/14 02:13:33;;;;;;;15.40;13.80;;;;;;;20.40;85.09;99294.94;5072258;28;20195;-65
2022/06/14 02:16:06;;;;;;;14.67;13.23;;;;;;;20.35;82.76;99288.13;5072192;28;20191;-65
2022/06/14 02:18:37;;;;;;;14.33;12.57;;;;;;;20.25;82.98;99294.47;5072286;28;20192;-65
2022/06/14 02:21:09;;;;;;;14.33;12.83;;;;;;;20.24;83.11;99298.84;5072177;28;20214;-65
2022/06/14 02:23:41;;;;;;;15.50;13.40;;;;;;;20.28;82.99;99297.00;5072042;28;20199;-65
2022/06/14 02:26:13;;;;;;;17.17;12.87;;;;;;;20.26;82.89;99299.66;5071716;28;20194;-65
2022/06/14 02:28:44;;;;;;;16.30;13.57;;;;;;;20.24;83.16;99297.94;5071985;28;20230;-66
2022/06/14 02:31:17;;;;;;;15.50;14.00;;;;;;;20.32;83.17;99298.63;5072011;28;20191;-65
2022/06/14 02:33:50;;;;;;;15.57;13.93;;;;;;;20.31;83.42;99303.00;5071906;28;20671;-66
2022/06/14 02:36:21;;;;;;;15.37;13.73;;;;;;;20.30;83.56;99303.06;5071675;28;20679;-65
2022/06/14 02:38:51;;;;;;;19.00;13.47;;;;;;;20.20;83.87;99291.94;5059759;28;20192;-66
2022/06/14 02:41:23;;;;;;;14.27;12.77;;;;;;;20.29;83.98;99296.97;5051588;28;20711;-65
2022/06/14 02:43:57;;;;;;;15.00;13.60;;;;;;;20.31;83.80;99296.91;5051559;28;20666;-66
2022/06/14 02:46:31;;;;;;;16.17;14.47;;;;;;;20.31;83.87;99299.53;5051534;28;20199;-66
2022/06/14 02:49:04;;;;;;;15.13;13.63;;;;;;;20.32;83.90;99296.03;5051403;28;20223;-66
2022/06/14 02:51:38;;;;;;;15.73;14.20;;;;;;;20.35;84.38;99291.59;5050856;28;20435;-65
2022/06/14 02:54:09;;;;;;;15.17;13.67;;;;;;;20.50;83.38;99288.56;5051202;28;20740;-65
2022/06/14 02:56:45;;;;;;;15.00;13.70;;;;;;;20.53;83.12;99282.41;5051213;28;20200;-65
2022/06/14 02:59:18;;;;;;;15.17;13.57;;;;;;;20.57;82.99;99279.66;5051318;28;20184;-67
2022/06/14 03:01:48;;;;;;;14.97;13.37;;;;;;;20.66;82.54;99282.94;5065579;28;20575;-66
2022/06/14 03:04:20;;;;;;;15.30;13.83;;;;;;;20.87;81.63;99282.31;5071462;28;20198;-66
2022/06/14 03:06:54;;;;;;;14.63;13.23;;;;;;;21.13;80.38;99280.69;5071601;28;20573;-66
2022/06/14 03:09:24;;;;;;;14.87;13.37;;;;;;;21.32;79.39;99280.09;5071380;28;20260;-66
2022/06/14 03:11:59;;;;;;;17.33;13.73;;;;;;;21.43;79.15;99285.88;5071394;28;20197;-66
2022/06/14 03:14:35;;;;;;;16.87;15.10;;;;;;;21.45;79.17;99281.47;5062422;28;20200;-65
2022/06/14 03:17:14;;;;;;;18.23;14.33;;;;;;;21.47;78.57;99280.53;5051317;28;20253;-65
2022/06/14 03:19:50;;;;;;;15.30;13.33;;;;;;;21.26;78.36;99260.25;5051079;28;20308;-65
2022/06/14 03:22:23;;;;;;;14.67;13.17;;;;;;;21.41;78.70;99275.47;5050917;28;20198;-65
2022/06/14 03:24:57;;;;;;;14.33;12.93;;;;;;;21.39;78.39;99271.19;5051209;28;20207;-66
2022/06/14 03:27:31;;;;;;;15.80;13.30;;;;;;;21.36;78.01;99266.94;5051135;28;20189;-66
2022/06/14 03:30:04;;;;;;;15.43;13.17;;;;;;;21.37;78.02;99266.00;5050527;28;20211;-65
2022/06/14 03:32:38;;;;;;;15.33;13.73;;;;;;;21.43;77.86;99271.03;5051055;28;20203;-66
2022/06/14 03:35:11;;;;;;;21.93;14.50;;;;;;;21.56;76.87;99269.75;5050508;28;20203;-67
2022/06/14 03:37:38;;;;;;;20.07;14.70;;;;;;;21.68;76.92;99261.53;5050768;28;20567;-66
2022/06/14 03:40:09;;;;;;;15.83;14.13;;;;;;;21.84;76.40;99266.28;5050624;28;20203;-66
2022/06/14 03:42:38;;;;;;;14.87;13.37;;;;;;;21.84;75.36;99243.56;5050734;28;20631;-66
2022/06/14 03:45:07;;;;;;;16.67;12.87;;;;;;;21.98;74.97;99266.69;5050587;28;20184;-66
2022/06/14 03:47:35;;;;;;;15.17;13.60;;;;;;;22.00;75.02;99267.50;5051140;28;20192;-66
2022/06/14 03:50:06;;;;;;;15.27;13.17;;;;;;;22.02;74.15;99256.06;5050698;28;20220;-66
2022/06/14 03:52:57;;;;;;;15.40;13.02;;;;;;;22.13;73.86;99261.81;5049791;28;20440;-66
2022/06/14 03:55:40;;;;;;;13.37;12.17;;;;;;;22.13;72.95;99258.31;5061164;28;20192;-65
2022/06/14 03:58:23;;;;;;;13.90;12.43;;;;;;;22.19;72.52;99263.34;5069291;28;20563;-65
2022/06/14 04:00:54;;;;;;;14.00;12.27;;;;;;;22.16;72.40;99261.69;5069953;28;20198;-65
2022/06/14 04:03:45;;;;;;;13.00;11.90;;;;;;;22.20;72.27;99262.44;5070186;28;20195;-65
2022/06/14 04:06:22;;;;;;;14.57;11.70;;;;;;;22.26;72.08;99267.47;5067319;28;20199;-66
2022/06/14 04:08:57;;;;;;;13.97;12.57;;;;;;;22.26;72.17;99275.31;5068703;28;20199;-65
2022/06/14 04:11:33;;;;;;;14.60;13.23;;;;;;;22.15;73.09;99270.44;5071064;28;20190;-65
2022/06/14 04:14:14;;;;;;;15.55;13.48;;;;;;;22.16;73.38;99271.31;5073806;28;20941;-65
2022/06/14 04:16:52;;;;;;;16.70;13.00;;;;;;;22.19;73.27;99281.69;5074289;28;20185;-65
2022/06/14 04:19:31;;;;;;;15.43;13.50;;;;;;;22.25;73.30;99281.44;5073985;28;20191;-65
2022/06/14 04:22:05;;;;;;;14.77;12.73;;;;;;;22.31;72.94;99276.84;5073456;28;20191;-65
2022/06/14 04:24:37;;;;;;;15.83;13.60;;;;;;;22.41;72.72;99279.16;5073434;28;20272;-65
2022/06/14 04:27:12;;;;;;;14.40;12.53;;;;;;;22.48;73.22;99285.88;5074269;28;20204;-65
2022/06/14 04:29:48;;;;;;;16.80;13.07;;;;;;;22.56;72.82;99282.09;5073933;28;20739;-65
2022/06/14 04:32:19;;;;;;;15.03;13.37;;;;;;;22.63;71.88;99296.72;5073801;28;20195;-65
2022/06/14 04:34:52;;;;;;;14.53;13.10;;;;;;;22.69;72.04;99283.38;5073898;28;20624;-65
2022/06/14 04:37:24;;;;;;;16.43;13.37;;;;;;;22.77;71.55;99296.22;5073730;28;20195;-65
2022/06/14 04:39:57;;;;;;;17.77;13.03;;;;;;;22.86;71.41;99299.34;5073984;28;20192;-65
2022/06/14 04:42:30;;;;;;;14.37;12.80;;;;;;;22.90;71.43;99303.59;5073976;28;20290;-66
2022/06/14 04:45:07;;;;;;;14.90;12.97;;;;;;;22.91;71.44;99294.78;5073968;28;20210;-67
2022/06/14 04:47:43;;;;;;;15.00;12.77;;;;;;;22.93;71.33;99302.63;5073751;28;20187;-65
2022/06/14 04:50:15;;;;;;;15.90;12.87;;;;;;;22.94;72.07;99304.31;5073656;28;20215;-64
2022/06/14 04:52:47;;;;;;;15.20;13.50;;;;;;;22.97;71.34;99309.44;5072339;28;20199;-65
2022/06/14 04:55:18;;;;;;;15.30;13.53;;;;;;;23.01;71.51;99313.66;5073190;28;20241;-65
2022/06/14 04:57:48;;;;;;;14.23;12.87;;;;;;;23.05;71.99;99310.00;5073236;28;20195;-66
2022/06/14 05:00:19;;;;;;;17.47;14.03;;;;;;;23.17;72.15;99306.06;5073114;28;20188;-66
2022/06/14 05:02:52;;;;;;;16.50;13.77;;;;;;;23.29;70.98;99309.06;5073280;28;20195;-66
2022/06/14 05:05:24;;;;;;;14.17;12.67;;;;;;;23.43;70.24;99312.06;5072838;28;20191;-66
2022/06/14 05:07:54;;;;;;;14.87;13.13;;;;;;;23.54;70.58;99309.00;5073007;28;20206;-67
2022/06/14 05:10:26;;;;;;;13.17;11.97;;;;;;;23.72;69.91;99321.41;5072589;28;20226;-66
2022/06/14 05:12:57;;;;;;;15.90;12.33;;;;;;;23.79;69.24;99314.13;5072798;28;20198;-66
2022/06/14 05:15:32;;;;;;;17.43;13.03;;;;;;;23.82;68.09;99322.75;5073066;28;20198;-65
2022/06/14 05:18:03;;;;;;;14.37;12.80;;;;;;;23.91;67.99;99324.16;5072448;28;20252;-67
2022/06/14 05:20:36;;;;;;;14.10;12.40;;;;;;;24.04;67.70;99317.47;5071544;28;20188;-67
2022/06/14 05:23:08;;;;;;;14.93;11.77;;;;;;;24.17;66.26;99323.13;5071827;28;20602;-65
2022/06/14 05:25:47;;;;;;;12.70;11.40;;;;;;;24.28;65.83;99323.53;5072624;28;20195;-66
2022/06/14 05:28:16;;;;;;;14.50;12.07;;;;;;;24.33;65.63;99332.06;5070694;28;20188;-66
2022/06/14 05:30:54;;;;;;;14.03;11.70;;;;;;;24.39;65.77;99331.81;5067987;28;20221;-57
2022/06/14 05:33:33;;;;;;;13.33;11.93;;;;;;;24.44;65.53;99337.72;5072170;28;20191;-57
2022/06/14 05:36:04;;;;;;;12.73;11.40;;;;;;;24.53;64.00;99337.34;5068753;28;20253;-56
2022/06/14 05:38:40;;;;;;;13.70;12.40;;;;;;;24.60;64.52;99323.88;5070441;28;21003;-56
2022/06/14 05:41:12;;;;;;;13.50;12.17;;;;;;;24.76;63.06;99329.31;5071429;28;20206;-57
2022/06/14 05:43:44;;;;;;;12.73;11.63;;;;;;;24.79;63.14;99339.72;5071737;28;20658;-57
2022/06/14 05:46:21;;;;;;;13.00;10.80;;;;;;;24.67;61.28;99346.31;5069832;28;20562;-57
2022/06/14 05:48:51;;;;;;;14.80;11.63;;;;;;;24.77;62.29;99341.53;5072657;28;20651;-57
2022/06/14 05:51:25;;;;;;;13.40;11.60;;;;;;;24.78;61.79;99353.72;5072158;28;20649;-56
2022/06/14 05:53:57;;;;;;;11.70;10.63;;;;;;;24.72;61.15;99337.41;5070979;28;20433;-56
2022/06/14 05:56:31;;;;;;;13.27;11.27;;;;;;;24.80;61.40;99324.81;5072264;28;20210;-56
2022/06/14 05:59:07;;;;;;;11.90;10.60;;;;;;;24.97;61.15;99344.16;5071793;28;20195;-56
2022/06/14 06:01:41;;;;;;;15.60;10.67;;;;;;;25.08;59.70;99341.88;5072112;28;20191;-56
2022/06/14 06:04:16;;;;;;;16.10;11.00;;;;;;;25.15;60.31;99345.09;5072054;28;20223;-56
2022/06/14 06:06:48;;;;;;;12.33;10.90;;;;;;;25.15;60.31;99326.69;5071966;28;20252;-57
2022/06/14 06:09:19;;;;;;;12.37;11.07;;;;;;;25.21;59.11;99350.97;5071506;28;20220;-56
2022/06/14 06:11:51;;;;;;;13.60;11.07;;;;;;;25.09;59.41;99322.56;5064405;28;20219;-56
2022/06/14 06:14:22;;;;;;;11.90;10.68;;;;;;;25.16;58.59;99346.81;5068796;28;20573;-56
2022/06/14 06:16:56;;;;;;;11.23;10.13;;;;;;;25.19;58.19;99350.16;5068595;28;20666;-57
2022/06/14 06:19:27;;;;;;;12.43;10.83;;;;;;;25.18;59.91;99331.81;5069301;28;20198;-57
2022/06/14 06:21:59;;;;;;;11.63;10.40;;;;;;;25.34;57.57;99360.91;5071063;28;20175;-56
2022/06/14 06:24:36;;;;;;;11.50;10.50;;;;;;;25.34;58.06;99364.38;5071046;28;20563;-57
2022/06/14 06:27:08;;;;;;;11.37;10.27;;;;;;;25.45;58.19;99358.63;5066739;28;20207;-57
2022/06/14 06:29:40;;;;;;;12.03;10.70;;;;;;;25.53;58.56;99369.69;5064433;28;20203;-57
2022/06/14 06:32:10;;;;;;;11.47;10.47;;;;;;;25.61;58.06;99355.25;5067504;28;20199;-57
2022/06/14 06:34:37;;;;;;;13.23;11.57;;;;;;;25.65;57.66;99346.28;5063796;28;20202;-57
2022/06/14 06:37:12;;;;;;;12.57;10.68;;;;;;;25.65;57.75;99342.81;5064252;28;20199;-56
2022/06/14 06:39:45;;;;;;;12.65;11.02;;;;;;;25.65;58.50;99338.41;5050923;28;20282;-65
2022/06/14 06:42:17;;;;;;;11.83;10.67;;;;;;;25.69;57.84;99350.47;5050988;28;20338;-65
2022/06/14 06:44:54;;;;;;;11.40;10.23;;;;;;;25.71;58.28;99343.34;5050835;28;20683;-65
2022/06/14 06:47:29;;;;;;;11.23;10.33;;;;;;;25.77;57.97;99347.47;5051171;28;20276;-65
2022/06/14 06:50:24;;;;;;;12.90;11.80;;;;;;;25.80;58.66;99349.94;5055623;28;20720;-65
2022/06/14 06:53:01;;;;;;;12.40;10.90;;;;;;;25.92;58.66;99352.00;5070750;28;20199;-65
2022/06/14 06:55:40;;;;;;;13.60;11.37;;;;;;;26.02;58.54;99348.00;5071082;28;20199;-65
2022/06/14 06:58:15;;;;;;;14.60;11.15;;;;;;;26.07;58.26;99353.88;5070693;28;20558;-65
2022/06/14 07:00:44;;;;;;;12.37;11.07;;;;;;;26.11;58.33;99351.97;5070542;28;20695;-65
2022/06/14 07:03:20;;;;;;;11.40;10.18;;;;;;;26.16;58.39;99352.59;5070743;28;20214;-66
2022/06/14 07:05:51;;;;;;;10.97;10.03;;;;;;;26.25;58.49;99350.38;5069893;28;20213;-65
2022/06/14 07:08:24;;;;;;;10.77;9.70;;;;;;;26.38;58.18;99345.34;5065935;28;20191;-65
2022/06/14 07:10:53;;;;;;;11.40;10.30;;;;;;;26.52;57.82;99347.28;5067286;28;20299;-66
2022/06/14 07:13:27;;;;;;;11.40;10.40;;;;;;;26.67;57.19;99357.88;5066150;28;20286;-65
2022/06/14 07:16:00;;;;;;;12.43;10.27;;;;;;;26.73;57.28;99354.06;5069180;28;20861;-66
2022/06/14 07:18:34;;;;;;;11.27;10.27;;;;;;;26.93;57.22;99346.88;5068963;28;20445;-65
2022/06/14 07:21:07;;;;;;;11.52;10.43;;;;;;;26.99;57.06;99353.63;5070118;28;20183;-65
2022/06/14 07:23:42;;;;;;;11.15;9.63;;;;;;;27.19;56.99;99349.94;5069348;28;20191;-66
2022/06/14 07:26:17;;;;;;;10.95;9.77;;;;;;;27.23;56.04;99351.44;5070580;28;20186;-66
2022/06/14 07:28:52;;;;;;;11.27;10.13;;;;;;;27.26;55.40;99352.16;5070354;28;20647;-65
2022/06/14 07:31:25;;;;;;;10.98;10.00;;;;;;;27.14;55.57;99350.16;5070421;28;20229;-65
2022/06/14 07:33:55;;;;;;;11.27;10.18;;;;;;;27.26;56.16;99352.16;5070015;28;20199;-66
2022/06/14 07:36:29;;;;;;;11.30;10.18;;;;;;;27.25;55.45;99344.31;5069870;28;20709;-66
2022/06/14 07:39:04;;;;;;;11.43;10.32;;;;;;;27.26;55.18;99357.41;5070636;28;20194;-66
2022/06/14 07:41:40;;;;;;;10.50;9.70;;;;;;;27.24;55.18;99361.94;5069277;28;20195;-65
2022/06/14 07:44:16;;;;;;;11.25;9.98;;;;;;;27.24;55.35;99346.09;5065044;28;20674;-65
2022/06/14 07:46:53;;;;;;;10.48;9.57;;;;;;;27.38;55.35;99348.00;5066764;28;20227;-68
2022/06/14 07:49:29;;;;;;;12.82;9.88;;;;;;;27.55;55.62;99358.53;5068815;28;20456;-66
2022/06/14 07:52:02;;;;;;;10.20;9.20;;;;;;;27.71;53.92;99354.09;5069763;28;20241;-66
2022/06/14 07:54:36;;;;;;;10.15;9.15;;;;;;;27.78;54.08;99355.44;5069610;28;20211;-65
2022/06/14 07:57:08;;;;;;;10.02;9.05;;;;;;;27.71;52.99;99358.50;5064854;28;20213;-66
2022/06/14 07:59:42;;;;;;;12.20;9.27;;;;;;;27.63;53.71;99363.38;5067623;28;20199;-66
2022/06/14 08:02:18;;;;;;;12.30;9.80;;;;;;;27.65;54.40;99364.13;5069647;28;20624;-66
2022/06/14 08:04:52;;;;;;;10.05;8.52;;;;;;;27.67;54.46;99359.59;5069818;28;20191;-66
2022/06/14 08:07:20;;;;;;;10.10;9.25;;;;;;;27.72;54.83;99352.28;5069627;28;20195;-66
2022/06/14 08:09:53;;;;;;;9.68;8.80;;;;;;;27.78;55.14;99344.88;5069555;28;20698;-66
2022/06/14 08:12:30;;;;;;;9.43;8.63;;;;;;;27.81;54.22;99354.41;5069515;28;20219;-66
2022/06/14 08:15:02;;;;;;;10.82;9.68;;;;;;;27.91;54.75;99345.03;5068918;28;20433;-66
2022/06/14 08:17:35;;;;;;;11.55;9.35;;;;;;;27.92;54.35;99346.72;5069455;28;20693;-68
2022/06/14 08:20:13;;;;;;;9.50;8.68;;;;;;;28.05;53.82;99345.13;5068222;28;20191;-66
2022/06/14 08:22:46;;;;;;;9.88;8.98;;;;;;;28.14;54.21;99349.88;5069031;28;20578;-65
2022/06/14 08:25:18;;;;;;;11.40;9.05;;;;;;;28.20;53.32;99331.03;5069253;28;20217;-66
2022/06/14 08:27:49;;;;;;;9.52;8.57;;;;;;;28.39;51.47;99342.25;5059023;28;20196;-66
2022/06/14 08:30:19;;;;;;;9.00;8.10;;;;;;;28.44;49.03;99345.47;5048984;28;20691;-66
2022/06/14 08:32:55;;;;;;;10.13;8.35;;;;;;;28.45;49.21;99336.59;5051170;28;20667;-65
2022/06/14 08:35:28;;;;;;;8.45;7.75;;;;;;;28.53;49.96;99336.13;5069234;28;20195;-66
2022/06/14 08:38:00;;;;;;;10.02;9.10;;;;;;;28.62;48.93;99339.09;5050725;28;20196;-65
2022/06/14 08:41:01;;;;;;;8.88;8.05;;;;;;;28.74;48.45;99331.38;5049129;28;20193;-66
2022/06/14 08:43:40;;;;;;;8.90;8.00;;;;;;;28.88;47.32;99332.25;5045242;28;20192;-66
2022/06/14 08:46:20;;;;;;;9.32;8.43;;;;;;;28.93;47.92;99331.94;5049364;28;20253;-66
2022/06/14 08:49:09;;;;;;;8.73;7.80;;;;;;;29.09;46.02;99332.75;5049006;28;20196;-66
2022/06/14 08:51:55;;;;;;;8.55;7.75;;;;;;;29.07;45.40;99332.81;5047850;28;20223;-66
2022/06/14 08:54:46;;;;;;;8.30;7.50;;;;;;;29.05;45.69;99334.72;5048858;28;20200;-66
2022/06/14 08:57:35;;;;;;;8.70;7.47;;;;;;;29.05;44.92;99331.22;5048837;28;20196;-65
2022/06/14 09:00:32;;;;;;;7.50;6.78;;;;;;;29.07;45.03;99324.03;5051852;28;20206;-65
2022/06/14 09:03:50;;;;;;;10.30;7.70;;;;;;;29.19;44.58;99333.84;5050088;28;20202;-65
2022/06/14 09:06:51;;;;;;;9.85;6.60;;;;;;;29.07;42.30;99326.66;5051751;28;20208;-65
2022/06/14 09:09:46;;;;;;;8.55;6.88;;;;;;;28.98;43.14;99320.16;5044576;28;20227;-56
2022/06/14 09:13:00;;;;;;;9.45;6.78;;;;;;;29.10;43.34;99314.09;5050713;28;20454;-57
2022/06/14 09:16:06;;;;;;;7.97;7.15;;;;;;;29.30;42.58;99314.69;5042111;28;20196;-58
2022/06/14 09:18:46;;;;;;;7.50;6.22;;;;;;;29.35;42.28;99316.09;5053019;28;20191;-57
2022/06/14 09:21:16;;;;;;;9.40;6.82;;;;;;;29.31;42.42;99311.94;5060717;28;20659;-57
2022/06/14 09:24:00;;;;;;;7.22;6.63;;;;;;;29.38;42.07;99313.25;5052424;28;20208;-57
2022/06/14 09:26:48;;;;;;;6.95;6.30;;;;;;;29.46;41.82;99305.69;5052012;28;20181;-57
2022/06/14 09:29:41;;;;;;;7.03;6.35;;;;;;;29.54;41.69;99297.22;5060750;28;20666;-57
2022/06/14 09:35:36;;;;;;;7.53;6.40;;;;;;;29.80;41.72;99299.91;5071464;28;20441;-57
2022/06/14 09:38:23;;;;;;;8.68;6.57;;;;;;;29.91;41.72;99295.72;5072140;28;20332;-57
2022/06/14 09:41:05;;;;;;;9.13;6.65;;;;;;;29.86;40.92;99301.31;5071843;28;20690;-58
2022/06/14 09:43:56;;;;;;;8.07;6.45;;;;;;;29.61;40.55;99262.31;5069182;28;20291;-57
2022/06/14 09:46:57;;;;;;;8.25;6.63;;;;;;;30.00;41.74;99287.16;5065458;28;20191;-57
2022/06/14 09:49:53;;;;;;;7.00;6.40;;;;;;;30.09;40.86;99283.91;5070654;28;20194;-58
2022/06/14 09:53:02;;;;;;;6.97;6.35;;;;;;;30.19;41.14;99291.13;5069697;28;20701;-57
2022/06/14 09:56:04;;;;;;;7.50;6.85;;;;;;;30.14;40.39;99282.63;5071256;28;20188;-58
2022/06/14 09:59:08;;;;;;;7.25;6.55;;;;;;;30.14;41.57;99273.84;5068213;28;20191;-56
2022/06/14 10:01:45;;;;;;;10.43;6.65;;;;;;;30.29;40.43;99268.38;5046875;28;20187;-58
2022/06/14 10:04:35;;;;;;;6.80;6.20;;;;;;;30.46;41.12;99275.19;5071765;28;20195;-57
2022/06/14 10:07:47;;;;;;;7.18;6.68;;;;;;;30.49;40.21;99264.34;5071321;28;20198;-57
2022/06/14 10:10:46;;;;;;;8.43;6.70;;;;;;;30.63;41.42;99258.94;5070471;28;20480;-57
2022/06/14 10:13:56;;;;;;;7.93;6.95;;;;;;;30.72;39.72;99257.47;5071020;28;20187;-57
2022/06/14 10:16:44;;;;;;;7.22;6.25;;;;;;;30.73;39.39;99259.19;5070891;28;20202;-56
2022/06/14 10:19:39;;;;;;;7.05;6.55;;;;;;;30.77;38.69;99264.16;5071161;28;20187;-56
2022/06/14 10:22:20;;;;;;;7.50;6.72;;;;;;;30.91;38.60;99255.22;5070905;28;20192;-57
2022/06/14 10:24:55;;;;;;;8.32;6.32;;;;;;;31.07;39.43;99250.53;5070855;28;20206;-57
2022/06/14 10:30:42;;;;;;;6.93;6.32;;;;;;;31.19;37.20;99240.84;5071116;28;21007;-57
2022/06/14 10:33:27;;;;;;;6.50;5.90;;;;;;;31.33;37.63;99232.75;5066923;28;20231;-57
2022/06/14 10:36:09;;;;;;;6.60;6.10;;;;;;;31.49;37.24;99239.50;5066502;28;20187;-57
2022/06/14 10:38:56;;;;;;;6.65;6.05;;;;;;;31.54;37.14;99231.19;5064856;28;20206;-57
2022/06/14 10:41:33;;;;;;;6.25;5.75;;;;;;;31.63;37.46;99234.97;5068657;28;20198;-57
2022/06/14 10:44:14;;;;;;;8.55;6.53;;;;;;;31.88;36.99;99246.34;5068166;28;20245;-57
2022/06/14 10:46:48;;;;;;;6.38;4.78;;;;;;;31.75;38.01;99255.34;5067960;28;20226;-57
2022/06/14 10:49:43;;;;;;;5.17;4.40;;;;;;;31.40;38.06;99261.38;5069420;28;20442;-57
2022/06/14 10:52:37;;;;;;;4.93;4.45;;;;;;;31.21;38.28;99265.47;5070417;28;20653;-58
2022/06/14 10:55:19;;;;;;;6.82;4.50;;;;;;;31.04;37.78;99257.91;5067869;28;20678;-57
2022/06/14 10:58:08;;;;;;;8.25;3.80;;;;;;;30.95;37.35;99248.78;5070702;28;20188;-59
2022/06/14 11:00:45;;;;;;;4.93;4.63;;;;;;;30.24;39.15;99246.59;5070199;28;20191;-58
2022/06/14 11:03:24;;;;;;;6.28;4.85;;;;;;;29.90;39.40;99236.59;5070418;28;20187;-58
2022/06/14 11:06:11;;;;;;;5.57;5.07;;;;;;;29.74;40.71;99247.34;5069959;28;20198;-57
2022/06/14 11:08:54;;;;;;;5.65;5.15;;;;;;;29.80;37.61;99241.63;5069870;28;20191;-57
2022/06/14 11:11:54;;;;;;;5.95;4.88;;;;;;;29.61;35.83;99240.28;5070730;28;20219;-58
2022/06/14 11:14:30;;;;;;;9.10;5.25;;;;;;;29.50;35.41;99238.31;5049581;28;20529;-57
2022/06/14 11:17:30;;;;;;;9.98;4.80;;;;;;;29.64;34.59;99238.28;5053504;28;20207;-58
2022/06/14 11:20:18;;;;;;;6.43;5.25;;;;;;;29.62;35.56;99237.53;5059008;28;20629;-65
2022/06/14 11:22:54;;;;;;;7.68;4.70;;;;;;;29.84;34.65;99242.28;5062508;28;20192;-66
2022/06/14 11:25:35;;;;;;;8.20;5.13;;;;;;;29.89;34.65;99237.53;5051179;28;20299;-66
2022/06/14 11:28:15;;;;;;;6.40;5.68;;;;;;;29.94;34.92;99239.88;5049931;28;20219;-67
2022/06/14 11:30:47;;;;;;;7.07;5.10;;;;;;;29.88;33.47;99243.78;5050019;28;20195;-66
2022/06/14 11:33:28;;;;;;;6.28;5.70;;;;;;;29.91;34.78;99245.38;5052578;28;20219;-67
2022/06/14 11:36:18;;;;;;;7.30;5.28;;;;;;;29.75;36.00;99238.41;5068228;28;20196;-67
2022/06/14 11:39:09;;;;;;;7.97;5.72;;;;;;;29.77;35.92;99247.13;5069928;28;20551;-67
2022/06/14 11:41:41;;;;;;;5.90;5.30;;;;;;;29.71;36.59;99283.75;5069629;28;20651;-66
2022/06/14 11:44:21;;;;;;;6.85;6.22;;;;;;;28.85;41.65;99262.78;5069456;28;20195;-66
2022/06/14 11:46:58;;;;;;;12.10;5.30;;;;;;;27.96;44.69;99250.53;5049878;28;20583;-67
2022/06/14 11:49:33;;;;;;;6.18;5.57;;;;;;;27.86;46.21;99271.34;5063182;28;20245;-66
2022/06/14 11:52:12;;;;;;;6.93;6.25;;;;;;;27.71;47.28;99293.38;5055693;28;20452;-66
2022/06/14 11:54:49;;;;;;;10.63;6.18;;;;;;;27.48;48.27;99289.38;5058833;28;20325;-66
2022/06/14 11:57:26;;;;;;;9.43;5.70;;;;;;;27.82;48.55;99298.88;5069736;28;20187;-66
2022/06/14 12:00:22;;;;;;;9.45;5.85;;;;;;;28.06;47.13;99294.00;5069471;28;20647;-66
2022/06/14 12:03:02;;;;;;;8.38;5.00;;;;;;;27.90;46.08;99301.94;5070023;28;20191;-66
2022/06/14 12:05:41;;;;;;;6.82;4.85;;;;;;;27.97;46.10;99289.22;5069288;28;20203;-57
2022/06/14 12:08:25;;;;;;;7.97;5.05;;;;;;;28.08;45.13;99295.59;5069462;28;20202;-57
2022/06/14 12:10:57;;;;;;;8.43;4.32;;;;;;;28.08;42.00;99300.03;5069584;28;20237;-57
2022/06/14 12:13:50;;;;;;;10.25;5.90;;;;;;;28.22;44.70;99294.81;5069300;28;20226;-58
2022/06/14 12:16:23;;;;;;;12.25;6.32;;;;;;;28.33;44.81;99302.94;5069037;28;20444;-57
2022/06/14 12:19:00;;;;;;;4.70;4.28;;;;;;;28.47;42.81;99302.13;5069350;28;20557;-57